Time;durP1;ratioP1;P1;durP2;ratioP2;P2;SDS_P1;SDS_P2;PMS_P1;PMS_P2;Temp;Humidity;BMP_temperature;BMP_pressure;BME280_temperature;BME280_humidity;BME280_pressure;Samples;Min_cycle;Max_cycle;Signal;HPM_P1;HPM_P2
2021/01/25 00:00:42;;;;;;;28.10;18.83;;;-1.00;98.60;;;;;;5021174;28;20045;-80
2021/01/25 00:03:08;;;;;;;27.67;19.23;;;-1.00;98.60;;;;;;5042161;28;20049;-80
2021/01/25 00:05:36;;;;;;;31.00;20.67;;;-1.10;98.60;;;;;;5044480;28;20045;-80
2021/01/25 00:08:02;;;;;;;34.35;20.25;;;-1.00;98.60;;;;;;5052339;28;20053;-80
2021/01/25 00:10:28;;;;;;;33.03;20.77;;;-1.00;98.60;;;;;;5045875;28;20045;-80
2021/01/25 00:12:53;;;;;;;28.15;20.77;;;-1.10;98.60;;;;;;5044162;28;20037;-80
2021/01/25 00:15:19;;;;;;;29.98;20.80;;;-1.10;98.60;;;;;;5023453;28;20052;-79
2021/01/25 00:17:58;;;;;;;34.80;21.30;;;-1.10;98.60;;;;;;5035527;28;20057;-80
2021/01/25 00:20:23;;;;;;;23.95;18.13;;;-1.10;98.60;;;;;;5048744;28;20159;-80
2021/01/25 00:22:49;;;;;;;32.20;21.05;;;-1.10;98.60;;;;;;5027886;28;20068;-80
2021/01/25 00:25:15;;;;;;;30.77;19.35;;;-1.10;98.60;;;;;;5026790;28;20046;-80
2021/01/25 00:27:41;;;;;;;33.42;20.50;;;-1.20;98.50;;;;;;5035765;28;20101;-80
2021/01/25 00:30:09;;;;;;;33.28;21.13;;;-1.20;98.50;;;;;;5038893;28;20091;-80
2021/01/25 00:32:34;;;;;;;28.42;19.48;;;-1.20;98.50;;;;;;5006079;28;20045;-80
2021/01/25 00:35:00;;;;;;;26.75;18.95;;;-1.20;98.50;;;;;;5012215;28;20548;-80
2021/01/25 00:37:26;;;;;;;35.15;21.48;;;-1.30;98.50;;;;;;5041813;28;20046;-80
2021/01/25 00:39:51;;;;;;;31.48;20.10;;;-1.30;98.50;;;;;;5031458;28;20049;-80
2021/01/25 00:42:17;;;;;;;34.20;22.42;;;-1.30;98.50;;;;;;5032688;28;20038;-80
2021/01/25 00:44:43;;;;;;;25.17;18.48;;;-1.30;98.50;;;;;;5041989;28;20646;-80
2021/01/25 00:47:08;;;;;;;32.33;19.80;;;-1.30;98.50;;;;;;5016632;28;20065;-80
2021/01/25 00:49:34;;;;;;;29.98;19.63;;;-1.30;98.60;;;;;;5015543;28;20046;-80
2021/01/25 00:52:00;;;;;;;31.55;21.58;;;-1.40;98.50;;;;;;5006130;28;20663;-80
2021/01/25 00:54:26;;;;;;;31.55;20.85;;;-1.40;98.50;;;;;;5016690;28;20068;-80
2021/01/25 00:56:52;;;;;;;36.20;23.58;;;-1.40;98.50;;;;;;5025983;28;20091;-80
2021/01/25 00:59:18;;;;;;;30.83;21.13;;;-1.40;98.50;;;;;;5008503;28;20030;-80
2021/01/25 01:01:43;;;;;;;35.78;23.17;;;-1.40;98.60;;;;;;5009324;28;20082;-80
2021/01/25 01:04:09;;;;;;;38.47;25.63;;;-1.40;98.60;;;;;;5033245;28;20042;-80
2021/01/25 01:06:35;;;;;;;32.70;22.80;;;-1.40;98.60;;;;;;5027071;28;20833;-79
2021/01/25 01:09:01;;;;;;;36.45;23.90;;;-1.30;98.60;;;;;;5012730;28;20049;-80
2021/01/25 01:11:26;;;;;;;33.50;23.08;;;-1.40;98.60;;;;;;5001278;28;20091;-79
2021/01/25 01:13:52;;;;;;;32.17;21.58;;;-1.40;98.60;;;;;;5015657;28;20096;-80
2021/01/25 01:16:18;;;;;;;30.70;23.10;;;-1.40;98.60;;;;;;5035842;28;20044;-80
2021/01/25 01:18:43;;;;;;;40.78;25.85;;;-1.40;98.60;;;;;;4988721;28;20362;-79
2021/01/25 01:21:09;;;;;;;35.35;24.25;;;-1.40;98.70;;;;;;5033619;28;20057;-80
2021/01/25 01:23:35;;;;;;;37.72;27.40;;;-1.40;98.70;;;;;;5027184;28;20067;-80
2021/01/25 01:26:01;;;;;;;39.72;23.92;;;-1.40;98.70;;;;;;5018552;28;20066;-80
2021/01/25 01:28:26;;;;;;;39.42;26.33;;;-1.30;98.80;;;;;;5013287;28;20067;-80
2021/01/25 01:30:52;;;;;;;36.55;25.15;;;-1.40;98.80;;;;;;5008668;28;20141;-80
2021/01/25 01:33:20;;;;;;;38.65;26.92;;;-1.40;98.80;;;;;;5026645;28;20583;-80
2021/01/25 01:35:45;;;;;;;37.47;23.38;;;-1.30;98.80;;;;;;5035995;28;20047;-79
2021/01/25 01:38:11;;;;;;;41.58;28.60;;;-1.30;98.80;;;;;;5013373;28;20144;-80
2021/01/25 01:40:37;;;;;;;45.47;29.73;;;-1.40;98.80;;;;;;5020262;28;20029;-80
2021/01/25 01:43:03;;;;;;;42.15;28.52;;;-1.30;98.90;;;;;;5005412;28;20165;-79
2021/01/25 01:45:28;;;;;;;42.30;28.98;;;-1.30;99.00;;;;;;5011245;28;20470;-80
2021/01/25 01:47:55;;;;;;;47.35;31.42;;;-1.30;99.00;;;;;;5017688;28;20045;-80
2021/01/25 01:50:21;;;;;;;44.70;30.75;;;-1.30;99.00;;;;;;5011769;28;20053;-80
2021/01/25 01:52:48;;;;;;;47.20;31.95;;;-1.20;99.00;;;;;;5007794;28;20037;-80
2021/01/25 01:55:14;;;;;;;45.63;29.90;;;-1.30;99.00;;;;;;5020362;28;20037;-80
2021/01/25 01:57:41;;;;;;;43.17;28.60;;;-1.20;99.00;;;;;;5047404;28;20044;-80
2021/01/25 02:00:08;;;;;;;35.78;24.15;;;-1.30;99.00;;;;;;5025641;28;20088;-80
2021/01/25 02:02:46;;;;;;;47.97;30.05;;;-1.30;99.00;;;;;;5006892;28;20068;-80
2021/01/25 02:05:13;;;;;;;51.08;33.53;;;-1.30;99.00;;;;;;5026125;28;20045;-80
2021/01/25 02:07:44;;;;;;;47.88;31.27;;;-1.30;99.00;;;;;;5020144;28;20121;-80
2021/01/25 02:10:12;;;;;;;49.17;31.65;;;-1.30;99.00;;;;;;5022753;28;20037;-80
2021/01/25 02:12:38;;;;;;;53.72;34.70;;;-1.30;99.00;;;;;;5011512;28;20042;-79
2021/01/25 02:15:05;;;;;;;60.95;33.75;;;-1.30;99.10;;;;;;5036051;28;20041;-80
2021/01/25 02:17:31;;;;;;;60.72;35.08;;;-1.30;99.10;;;;;;5027224;28;20455;-79
2021/01/25 02:20:08;;;;;;;50.45;31.63;;;-1.30;99.10;;;;;;5024397;28;20346;-79
2021/01/25 02:22:36;;;;;;;56.53;36.53;;;-1.30;99.10;;;;;;5024055;28;20116;-80
2021/01/25 02:25:09;;;;;;;57.28;35.70;;;-1.30;99.10;;;;;;5040583;28;20546;-79
2021/01/25 02:27:42;;;;;;;50.17;34.20;;;-1.40;99.00;;;;;;5049882;28;20096;-79
2021/01/25 02:30:11;;;;;;;49.40;31.98;;;-1.40;99.00;;;;;;5043233;28;20041;-79
2021/01/25 02:32:37;;;;;;;50.15;32.47;;;-1.40;99.00;;;;;;5025821;28;20033;-80
2021/01/25 02:35:07;;;;;;;66.43;40.72;;;-1.40;99.00;;;;;;5039609;28;20041;-80
2021/01/25 02:37:34;;;;;;;55.00;34.88;;;-1.40;99.00;;;;;;5049287;28;20060;-80
2021/01/25 02:40:01;;;;;;;61.40;38.40;;;-1.40;99.00;;;;;;5027510;28;20155;-80
2021/01/25 02:42:27;;;;;;;74.72;42.88;;;-1.40;99.10;;;;;;5027904;28;20045;-79
2021/01/25 02:44:55;;;;;;;80.25;47.58;;;-1.40;99.10;;;;;;5030296;28;20099;-80
2021/01/25 02:47:22;;;;;;;76.70;45.30;;;-1.30;99.10;;;;;;5042839;28;20452;-80
2021/01/25 02:49:48;;;;;;;68.28;41.05;;;-1.30;99.10;;;;;;5025075;28;20084;-80
2021/01/25 02:52:14;;;;;;;78.28;47.38;;;-1.30;99.10;;;;;;5027856;28;20080;-80
2021/01/25 02:54:42;;;;;;;70.32;42.13;;;-1.20;99.10;;;;;;5024834;28;20057;-79
2021/01/25 02:57:09;;;;;;;76.57;44.47;;;-1.30;99.10;;;;;;5042710;28;20044;-80
2021/01/25 02:59:40;;;;;;;64.03;38.50;;;-1.20;99.10;;;;;;5027389;28;20033;-79
2021/01/25 03:02:07;;;;;;;57.05;37.80;;;-1.20;99.10;;;;;;5059785;28;20041;-80
2021/01/25 03:04:34;;;;;;;63.67;37.10;;;-1.30;99.00;;;;;;5032141;28;20056;-80
2021/01/25 03:07:02;;;;;;;54.10;35.53;;;-1.30;99.00;;;;;;5027135;28;20076;-80
2021/01/25 03:09:28;;;;;;;64.07;40.30;;;-1.30;99.00;;;;;;5047715;28;20041;-79
2021/01/25 03:11:56;;;;;;;64.65;38.97;;;-1.40;99.00;;;;;;5028375;28;20033;-80
2021/01/25 03:14:22;;;;;;;59.58;37.30;;;-1.40;99.00;;;;;;5029035;28;20053;-80
2021/01/25 03:16:47;;;;;;;58.45;37.53;;;-1.40;99.00;;;;;;5055429;28;20037;-80
2021/01/25 03:19:13;;;;;;;58.33;37.83;;;-1.40;99.00;;;;;;5045073;28;20047;-80
2021/01/25 03:21:50;;;;;;;64.80;39.75;;;-1.40;99.00;;;;;;5029437;28;20389;-80
2021/01/25 03:24:16;;;;;;;63.40;38.97;;;-1.40;99.00;;;;;;5060573;28;20072;-79
2021/01/25 03:26:42;;;;;;;76.32;43.50;;;-1.50;99.00;;;;;;5027582;28;20033;-79
2021/01/25 03:29:09;;;;;;;63.75;39.42;;;-1.40;99.00;;;;;;5029641;28;20044;-79
2021/01/25 03:31:35;;;;;;;60.22;35.58;;;-1.40;99.00;;;;;;5026288;28;20029;-79
2021/01/25 03:34:02;;;;;;;70.00;41.35;;;-1.50;99.00;;;;;;5052351;28;20413;-80
2021/01/25 03:36:29;;;;;;;58.60;37.22;;;-1.50;99.00;;;;;;5049539;28;20461;-80
2021/01/25 03:38:56;;;;;;;56.95;35.78;;;-1.50;99.00;;;;;;5022385;28;20049;-79
2021/01/25 03:41:22;;;;;;;61.35;37.33;;;-1.60;98.90;;;;;;5028099;28;20068;-80
2021/01/25 03:43:47;;;;;;;74.18;40.97;;;-1.60;98.90;;;;;;5060155;28;20049;-80
2021/01/25 03:46:13;;;;;;;62.22;36.78;;;-1.60;98.90;;;;;;5037322;28;20049;-80
2021/01/25 03:48:39;;;;;;;76.32;41.97;;;-1.60;99.20;;;;;;5046534;28;20041;-80
2021/01/25 03:51:05;;;;;;;61.83;37.90;;;-1.60;99.20;;;;;;5024277;28;20061;-80
2021/01/25 03:53:32;;;;;;;67.18;37.33;;;-1.60;98.90;;;;;;5007935;28;20083;-80
2021/01/25 03:55:58;;;;;;;60.90;38.20;;;-1.60;98.90;;;;;;5047316;28;20053;-80
2021/01/25 03:58:25;;;;;;;69.50;40.45;;;-1.70;98.90;;;;;;5023090;28;20051;-79
2021/01/25 04:00:51;;;;;;;83.63;44.70;;;-1.70;98.90;;;;;;5042545;28;20485;-80
2021/01/25 04:03:17;;;;;;;60.80;37.83;;;-1.70;98.90;;;;;;5054087;28;20056;-80
2021/01/25 04:05:42;;;;;;;67.40;39.60;;;-1.70;98.90;;;;;;5031202;28;20558;-80
2021/01/25 04:08:08;;;;;;;68.13;38.55;;;-1.70;98.90;;;;;;5031926;28;20040;-79
2021/01/25 04:10:34;;;;;;;61.03;37.13;;;-1.70;98.90;;;;;;5034566;28;20038;-80
2021/01/25 04:13:00;;;;;;;66.28;39.63;;;-1.80;98.80;;;;;;5029997;28;20523;-80
2021/01/25 04:15:25;;;;;;;69.22;41.35;;;-1.80;98.80;;;;;;5059841;28;20052;-80
2021/01/25 04:17:51;;;;;;;61.08;37.42;;;-1.80;98.80;;;;;;5056841;28;20454;-80
2021/01/25 04:20:17;;;;;;;56.97;35.95;;;-1.80;98.80;;;;;;5022195;28;20045;-80
2021/01/25 04:22:43;;;;;;;64.10;37.20;;;-1.80;98.80;;;;;;5013528;28;20048;-80
2021/01/25 04:25:09;;;;;;;66.80;38.83;;;-1.90;98.70;;;;;;5047808;28;20083;-80
2021/01/25 04:27:35;;;;;;;78.38;42.08;;;-1.90;98.70;;;;;;5027817;28;20100;-80
2021/01/25 04:30:06;;;;;;;66.72;39.72;;;-1.90;98.70;;;;;;5035510;28;20056;-79
2021/01/25 04:32:35;;;;;;;72.90;40.50;;;-2.00;98.70;;;;;;5029361;28;20037;-80
2021/01/25 04:35:03;;;;;;;50.97;30.65;;;-2.00;98.70;;;;;;5029588;28;20041;-79
2021/01/25 04:37:29;;;;;;;64.47;37.90;;;-2.00;98.60;;;;;;5029065;28;20127;-80
2021/01/25 04:39:54;;;;;;;70.45;40.20;;;-2.00;98.60;;;;;;5061339;28;20048;-80
2021/01/25 04:42:20;;;;;;;83.53;44.47;;;-2.10;98.50;;;;;;5026130;28;20418;-80
2021/01/25 04:44:46;;;;;;;100.20;49.17;;;-2.10;98.50;;;;;;5042290;28;20033;-79
2021/01/25 04:47:12;;;;;;;69.85;39.47;;;-2.10;98.60;;;;;;5060134;28;20068;-79
2021/01/25 04:49:40;;;;;;;70.63;40.38;;;-2.10;98.60;;;;;;5021245;28;20081;-79
2021/01/25 04:52:07;;;;;;;58.92;37.35;;;-2.10;98.50;;;;;;5037026;28;20476;-79
2021/01/25 04:54:33;;;;;;;70.78;40.60;;;-2.10;98.50;;;;;;5054256;28;20035;-80
2021/01/25 04:57:02;;;;;;;79.75;44.20;;;-2.10;98.50;;;;;;5027071;28;20049;-79
2021/01/25 04:59:28;;;;;;;72.78;43.38;;;-2.20;98.40;;;;;;5055624;28;20502;-79
2021/01/25 05:01:53;;;;;;;68.68;38.58;;;-2.10;98.50;;;;;;5037897;28;20125;-80
2021/01/25 05:04:19;;;;;;;67.13;38.17;;;-2.10;98.50;;;;;;5047985;28;20054;-80
2021/01/25 05:06:45;;;;;;;65.45;38.88;;;-2.10;98.40;;;;;;5046479;28;20155;-80
2021/01/25 05:09:11;;;;;;;62.78;39.10;;;-2.10;98.40;;;;;;5037290;28;20037;-80
2021/01/25 05:11:36;;;;;;;59.38;36.97;;;-2.20;98.40;;;;;;5059073;28;20065;-79
2021/01/25 05:14:06;;;;;;;61.60;37.85;;;-2.20;98.40;;;;;;5056984;28;20442;-79
2021/01/25 05:16:33;;;;;;;78.97;44.00;;;-2.30;98.30;;;;;;5031544;28;20100;-79
2021/01/25 05:19:04;;;;;;;73.45;40.05;;;-2.40;98.30;;;;;;5065476;28;20041;-79
2021/01/25 05:21:40;;;;;;;77.38;44.40;;;-2.40;98.30;;;;;;5040127;28;20375;-79
2021/01/25 05:24:07;;;;;;;64.53;36.92;;;-2.40;98.30;;;;;;5046715;28;20045;-79
2021/01/25 05:26:34;;;;;;;64.45;35.28;;;-2.40;98.70;;;;;;5051747;28;20465;-79
2021/01/25 05:29:00;;;;;;;81.00;40.90;;;-2.40;98.40;;;;;;5026510;28;20507;-79
2021/01/25 05:31:27;;;;;;;74.07;42.63;;;-2.40;98.40;;;;;;5027092;28;20033;-80
2021/01/25 05:33:53;;;;;;;76.40;42.47;;;-2.40;98.40;;;;;;5046820;28;20053;-80
2021/01/25 05:36:41;;;;;;;74.18;43.13;;;-2.40;98.40;;;;;;5016490;28;20044;-80
2021/01/25 05:39:07;;;;;;;71.40;40.22;;;-2.40;98.40;;;;;;5043018;28;20042;-79
2021/01/25 05:41:36;;;;;;;77.70;41.50;;;-2.50;98.30;;;;;;5046310;28;20088;-78
2021/01/25 05:44:14;;;;;;;65.47;38.67;;;-2.50;98.30;;;;;;5042994;28;20375;-79
2021/01/25 05:46:40;;;;;;;75.82;41.78;;;-2.50;98.30;;;;;;5031527;28;20095;-79
2021/01/25 05:49:05;;;;;;;65.95;39.78;;;-2.60;98.30;;;;;;5062046;28;20056;-79
2021/01/25 05:51:32;;;;;;;60.28;36.42;;;-2.50;98.30;;;;;;5047818;28;20092;-79
2021/01/25 05:54:04;;;;;;;57.03;34.53;;;-2.60;98.30;;;;;;5041754;28;20147;-79
2021/01/25 05:56:30;;;;;;;57.30;36.08;;;-2.70;98.30;;;;;;5033461;28;20493;-79
2021/01/25 05:58:57;;;;;;;60.15;36.75;;;-2.70;98.40;;;;;;5019140;28;20049;-79
2021/01/25 06:01:23;;;;;;;54.47;31.85;;;-2.70;98.30;;;;;;5058870;28;20752;-78
2021/01/25 06:03:49;;;;;;;49.90;32.00;;;-2.80;98.30;;;;;;5026870;28;20125;-79
2021/01/25 06:06:26;;;;;;;45.20;29.65;;;-2.80;98.30;;;;;;5047109;28;20037;-79
2021/01/25 06:09:03;;;;;;;56.35;35.17;;;-2.80;98.40;;;;;;5026984;28;20076;-80
2021/01/25 06:11:35;;;;;;;53.83;31.30;;;-2.80;98.40;;;;;;5033925;28;20032;-80
2021/01/25 06:14:19;;;;;;;55.75;33.80;;;-2.90;98.40;;;;;;5061363;28;20079;-80
2021/01/25 06:16:49;;;;;;;53.40;33.35;;;-2.80;98.40;;;;;;5051126;28;20182;-79
2021/01/25 06:19:18;;;;;;;46.30;28.13;;;-2.80;98.40;;;;;;5032386;28;20052;-81
2021/01/25 06:21:47;;;;;;;38.35;27.85;;;-2.90;98.40;;;;;;5034112;28;20060;-80
2021/01/25 06:24:14;;;;;;;42.33;28.13;;;-2.90;98.40;;;;;;5040737;28;20057;-80
2021/01/25 06:26:40;;;;;;;61.30;36.75;;;-2.90;98.40;;;;;;5027260;28;20410;-80
2021/01/25 06:29:07;;;;;;;42.47;25.88;;;-3.00;98.40;;;;;;5012757;28;20050;-80
2021/01/25 06:31:38;;;;;;;44.80;30.70;;;-3.00;98.40;;;;;;5039939;28;20057;-80
2021/01/25 06:34:06;;;;;;;49.22;32.75;;;-3.00;98.40;;;;;;5005845;28;20049;-80
2021/01/25 06:36:34;;;;;;;50.78;30.40;;;-3.00;98.40;;;;;;5049058;28;20053;-79
2021/01/25 06:39:05;;;;;;;44.35;29.48;;;-3.00;98.40;;;;;;5024260;28;20052;-79
2021/01/25 06:41:42;;;;;;;47.63;31.08;;;-3.00;98.40;;;;;;5021512;28;20045;-79
2021/01/25 06:44:09;;;;;;;56.28;33.88;;;-3.00;98.30;;;;;;5007042;28;20045;-79
2021/01/25 06:46:38;;;;;;;44.25;30.38;;;-3.10;98.30;;;;;;5023485;28;20053;-79
2021/01/25 06:49:06;;;;;;;49.30;32.08;;;-3.10;98.60;;;;;;5028329;28;20055;-79
2021/01/25 06:51:38;;;;;;;44.55;31.30;;;-3.10;98.30;;;;;;5030261;28;20137;-81
2021/01/25 06:54:04;;;;;;;36.50;26.83;;;-3.10;98.30;;;;;;5024498;28;20060;-79
2021/01/25 06:56:50;;;;;;;40.67;29.17;;;-3.20;98.20;;;;;;5018882;28;20048;-80
2021/01/25 06:59:21;;;;;;;41.05;28.63;;;-3.20;98.20;;;;;;5031063;28;20041;-80
2021/01/25 07:01:50;;;;;;;42.28;29.05;;;-3.20;98.20;;;;;;5006406;28;20037;-80
2021/01/25 07:04:19;;;;;;;40.10;28.23;;;-3.30;98.20;;;;;;5036152;28;20048;-80
2021/01/25 07:06:53;;;;;;;43.17;30.25;;;-3.30;98.10;;;;;;5029444;28;20054;-81
2021/01/25 07:09:25;;;;;;;45.38;30.33;;;-3.30;98.10;;;;;;5029290;28;20034;-81
2021/01/25 07:11:52;;;;;;;46.10;30.33;;;-3.30;98.10;;;;;;5027123;28;20066;-81
2021/01/25 07:14:22;;;;;;;46.22;30.58;;;-3.30;98.10;;;;;;5027804;28;20073;-82
2021/01/25 07:16:51;;;;;;;44.25;29.05;;;-3.30;98.10;;;;;;5003651;28;20207;-81
2021/01/25 07:19:18;;;;;;;58.85;36.92;;;-3.40;98.10;;;;;;5031325;28;20042;-81
2021/01/25 07:21:46;;;;;;;55.10;34.67;;;-3.30;98.20;;;;;;5008071;28;20631;-81
2021/01/25 07:24:13;;;;;;;62.33;35.83;;;-3.30;98.10;;;;;;5026159;28;20040;-81
2021/01/25 07:26:39;;;;;;;59.10;36.55;;;-3.30;98.10;;;;;;5043623;28;20105;-81
2021/01/25 07:29:11;;;;;;;51.80;33.80;;;-3.40;98.10;;;;;;5030643;28;20500;-81
2021/01/25 07:31:37;;;;;;;52.10;34.38;;;-3.30;98.20;;;;;;5040867;28;20044;-79
2021/01/25 07:34:02;;;;;;;57.13;35.25;;;-3.40;98.10;;;;;;5034700;28;20084;-81
2021/01/25 07:36:31;;;;;;;72.63;42.42;;;-3.30;98.20;;;;;;5053163;28;21605;-82
2021/01/25 07:38:57;;;;;;;59.88;35.70;;;-3.30;98.10;;;;;;5036816;28;20081;-82
2021/01/25 07:41:23;;;;;;;78.63;43.63;;;-3.30;98.20;;;;;;5031722;28;20121;-83
2021/01/25 07:43:49;;;;;;;66.00;39.03;;;-3.20;98.20;;;;;;5049094;28;20075;-82
2021/01/25 07:46:15;;;;;;;83.93;46.75;;;-3.20;98.20;;;;;;5060450;28;20047;-82
2021/01/25 07:48:52;;;;;;;67.25;40.90;;;-3.20;98.20;;;;;;5055637;28;20048;-81
2021/01/25 07:51:21;;;;;;;59.90;38.33;;;-3.20;98.20;;;;;;5056898;28;20041;-82
2021/01/25 07:53:47;;;;;;;74.55;41.88;;;-3.20;98.10;;;;;;5028350;28;20105;-81
2021/01/25 07:56:18;;;;;;;80.07;44.90;;;-3.20;98.10;;;;;;5043574;28;20107;-81
2021/01/25 07:58:47;;;;;;;88.80;46.17;;;-3.20;98.10;;;;;;5063366;28;20091;-81
2021/01/25 08:01:19;;;;;;;86.10;47.60;;;-3.10;98.20;;;;;;5052035;28;20061;-80
2021/01/25 08:03:49;;;;;;;80.38;44.70;;;-3.10;98.20;;;;;;5043212;28;20029;-81
2021/01/25 08:06:16;;;;;;;73.45;41.13;;;-3.00;98.30;;;;;;5026519;28;20061;-81
2021/01/25 08:08:46;;;;;;;89.95;50.58;;;-3.00;98.20;;;;;;5035984;28;20068;-82
2021/01/25 08:11:12;;;;;;;80.05;46.65;;;-2.90;98.20;;;;;;5032299;28;20140;-81
2021/01/25 08:13:47;;;;;;;93.18;51.42;;;-2.90;98.20;;;;;;5023235;28;20060;-81
2021/01/25 08:16:19;;;;;;;83.50;46.97;;;-2.90;98.20;;;;;;5026313;28;20037;-80
2021/01/25 08:19:04;;;;;;;84.15;46.00;;;-2.90;98.20;;;;;;5023867;28;20045;-82
2021/01/25 08:21:39;;;;;;;81.72;47.80;;;-2.80;98.20;;;;;;5068228;28;20106;-83
2021/01/25 08:24:07;;;;;;;78.38;44.63;;;-2.80;98.20;;;;;;5038665;28;20393;-82
2021/01/25 08:26:34;;;;;;;97.65;51.53;;;-2.80;98.20;;;;;;5045638;28;20465;-82
2021/01/25 08:29:03;;;;;;;79.82;45.22;;;-2.80;98.20;;;;;;5030356;28;20041;-81
2021/01/25 08:31:36;;;;;;;105.05;56.17;;;-2.80;98.20;;;;;;5055078;28;20471;-82
2021/01/25 08:34:31;;;;;;;106.22;54.25;;;-2.70;98.20;;;;;;5044791;28;20184;-82
2021/01/25 08:37:12;;;;;;;93.00;47.33;;;-2.70;98.20;;;;;;5067247;28;20053;-82
2021/01/25 08:39:43;;;;;;;93.63;51.15;;;-2.60;98.30;;;;;;5051077;28;20053;-82
2021/01/25 08:42:31;;;;;;;90.30;49.65;;;-2.60;98.20;;;;;;5027854;28;20041;-81
2021/01/25 08:45:08;;;;;;;101.85;53.17;;;-2.50;98.20;;;;;;5056896;28;20043;-82
2021/01/25 08:47:35;;;;;;;90.78;52.72;;;-2.50;98.20;;;;;;5038788;28;20038;-82
2021/01/25 08:50:01;;;;;;;111.00;58.65;;;-2.40;98.30;;;;;;5066159;28;20113;-82
2021/01/25 08:52:39;;;;;;;108.53;59.25;;;-2.40;98.20;;;;;;5061288;28;20448;-82
2021/01/25 08:55:12;;;;;;;107.93;61.33;;;-2.30;98.60;;;;;;5054801;28;20140;-81
2021/01/25 08:57:41;;;;;;;105.50;60.13;;;-2.30;98.30;;;;;;5062701;28;20068;-83
2021/01/25 09:00:16;;;;;;;118.78;64.43;;;-2.20;98.30;;;;;;5032529;28;20116;-82
2021/01/25 09:02:44;;;;;;;130.80;67.47;;;-2.20;98.30;;;;;;5053516;28;20041;-81
2021/01/25 09:05:12;;;;;;;116.13;61.40;;;-2.10;98.30;;;;;;5041436;28;20075;-81
2021/01/25 09:07:38;;;;;;;137.13;68.75;;;-2.00;98.40;;;;;;5043483;28;20127;-82
2021/01/25 09:10:05;;;;;;;111.95;62.53;;;-1.90;98.30;;;;;;5054882;28;20052;-82
2021/01/25 09:12:31;;;;;;;113.50;60.90;;;-1.90;98.30;;;;;;5052466;28;20101;-81
2021/01/25 09:14:57;;;;;;;168.65;83.43;;;-1.80;98.40;;;;;;5059622;28;20057;-81
2021/01/25 09:17:24;;;;;;;192.55;89.03;;;-1.70;98.40;;;;;;5031784;28;20063;-81
2021/01/25 09:19:53;;;;;;;148.18;75.95;;;-1.50;98.60;;;;;;5070677;28;20048;-83
2021/01/25 09:22:19;;;;;;;168.48;83.32;;;-1.40;98.60;;;;;;5052850;28;20060;-85
2021/01/25 09:24:45;;;;;;;125.40;68.32;;;-1.30;98.60;;;;;;5029860;28;20448;-80
2021/01/25 09:27:11;;;;;;;146.27;72.05;;;-1.10;98.60;;;;;;5028600;28;20045;-80
2021/01/25 09:29:37;;;;;;;150.43;76.55;;;-1.10;98.60;;;;;;5053066;28;20083;-82
2021/01/25 09:32:04;;;;;;;135.35;70.07;;;-1.00;98.50;;;;;;5054022;28;20040;-81
2021/01/25 09:34:30;;;;;;;149.68;73.00;;;-1.00;98.50;;;;;;5038040;28;20227;-81
2021/01/25 09:36:56;;;;;;;169.02;78.90;;;-0.90;98.60;;;;;;5064330;28;20084;-82
2021/01/25 09:39:23;;;;;;;155.90;75.53;;;-0.70;98.70;;;;;;5033796;28;20056;-82
2021/01/25 09:41:49;;;;;;;159.70;80.32;;;-0.70;98.70;;;;;;5054126;28;20086;-81
2021/01/25 09:44:17;;;;;;;166.75;84.50;;;-0.60;98.60;;;;;;5034208;28;20040;-82
2021/01/25 09:46:43;;;;;;;147.82;79.28;;;-0.60;98.60;;;;;;5064017;28;20037;-82
2021/01/25 09:49:10;;;;;;;142.25;73.93;;;-0.50;98.70;;;;;;5045517;28;20051;-80
2021/01/25 09:51:36;;;;;;;149.13;78.22;;;-0.40;98.70;;;;;;5050522;28;20051;-81
2021/01/25 09:54:02;;;;;;;130.70;69.13;;;-0.30;98.70;;;;;;5068549;28;20059;-81
2021/01/25 09:56:28;;;;;;;141.50;71.38;;;-0.30;98.70;;;;;;5052627;28;20036;-79
2021/01/25 09:58:54;;;;;;;133.35;71.57;;;-0.20;98.60;;;;;;5032790;28;20052;-80
2021/01/25 10:01:24;;;;;;;146.25;76.32;;;-0.20;98.60;;;;;;5025397;28;20152;-80
2021/01/25 10:03:50;;;;;;;130.68;72.13;;;-0.20;98.60;;;;;;5041626;28;20108;-80
2021/01/25 10:06:16;;;;;;;130.30;68.32;;;0.00;98.70;;;;;;5043783;28;20119;-80
2021/01/25 10:08:43;;;;;;;119.18;71.15;;;0.10;98.70;;;;;;5040144;28;20041;-80
2021/01/25 10:11:08;;;;;;;116.13;65.43;;;0.20;98.80;;;;;;5051029;28;20044;-80
2021/01/25 10:13:34;;;;;;;110.10;64.00;;;0.30;98.80;;;;;;5058240;28;20059;-80
2021/01/25 10:16:00;;;;;;;112.53;66.40;;;0.40;98.90;;;;;;5026672;28;20042;-80
2021/01/25 10:18:26;;;;;;;100.22;61.28;;;0.50;98.80;;;;;;5037168;28;20033;-80
2021/01/25 10:20:52;;;;;;;91.15;59.90;;;0.70;98.80;;;;;;5027828;28;20529;-80
2021/01/25 10:23:18;;;;;;;101.38;62.47;;;0.80;98.80;;;;;;5033115;28;20036;-81
2021/01/25 10:25:44;;;;;;;101.13;60.55;;;0.90;98.80;;;;;;5028725;28;20072;-81
2021/01/25 10:28:10;;;;;;;88.55;55.90;;;1.00;98.80;;;;;;5044044;28;20052;-80
2021/01/25 10:30:35;;;;;;;77.45;52.70;;;1.10;98.70;;;;;;5010866;28;20053;-82
2021/01/25 10:33:02;;;;;;;82.40;54.33;;;1.10;98.60;;;;;;5016547;28;20124;-82
2021/01/25 10:35:28;;;;;;;92.00;55.90;;;1.20;98.60;;;;;;5013440;28;20038;-83
2021/01/25 10:37:55;;;;;;;75.93;51.63;;;1.20;98.50;;;;;;5007915;28;20073;-80
2021/01/25 10:40:21;;;;;;;73.40;49.28;;;1.20;98.50;;;;;;5021668;28;20099;-82
2021/01/25 10:42:47;;;;;;;64.80;46.10;;;1.30;98.40;;;;;;5042806;28;20121;-79
2021/01/25 10:45:13;;;;;;;70.53;49.25;;;1.30;98.60;;;;;;5024039;28;20114;-83
2021/01/25 10:47:40;;;;;;;66.88;46.83;;;1.30;98.20;;;;;;5009592;28;20036;-81
2021/01/25 10:50:11;;;;;;;60.10;44.10;;;1.30;98.10;;;;;;4996891;28;20420;-82
2021/01/25 10:52:37;;;;;;;55.30;41.75;;;1.40;98.40;;;;;;5017716;28;20041;-80
2021/01/25 10:55:04;;;;;;;55.20;39.03;;;1.40;97.90;;;;;;5012652;28;20056;-81
2021/01/25 10:57:33;;;;;;;48.70;37.28;;;1.50;97.90;;;;;;5037995;28;20038;-80
2021/01/25 11:00:01;;;;;;;51.83;38.45;;;1.50;97.80;;;;;;5003890;28;20556;-80
2021/01/25 11:02:27;;;;;;;44.78;35.95;;;1.60;97.50;;;;;;5007745;28;20073;-82
2021/01/25 11:04:53;;;;;;;50.00;37.72;;;1.60;97.40;;;;;;5027571;28;20035;-83
2021/01/25 11:07:19;;;;;;;48.83;36.60;;;1.70;97.30;;;;;;5022681;28;20033;-81
2021/01/25 11:09:45;;;;;;;48.67;35.78;;;1.70;97.20;;;;;;5029000;28;20037;-83
2021/01/25 11:12:11;;;;;;;50.53;36.17;;;1.70;97.10;;;;;;5015005;28;20414;-82
2021/01/25 11:14:37;;;;;;;46.10;32.50;;;1.80;96.90;;;;;;5009446;28;20044;-81
2021/01/25 11:17:02;;;;;;;36.42;28.10;;;1.90;96.70;;;;;;5014782;28;20030;-82
2021/01/25 11:19:28;;;;;;;41.03;30.17;;;2.00;96.60;;;;;;5044231;28;20064;-80
2021/01/25 11:21:54;;;;;;;44.30;31.98;;;1.90;96.30;;;;;;5006983;28;20038;-81
2021/01/25 11:24:20;;;;;;;42.15;31.35;;;2.00;96.30;;;;;;5021330;28;20080;-81
2021/01/25 11:26:46;;;;;;;41.85;33.20;;;2.00;96.00;;;;;;5052687;28;20045;-81
2021/01/25 11:29:15;;;;;;;46.20;33.13;;;2.10;95.90;;;;;;5028164;28;20515;-81
2021/01/25 11:31:40;;;;;;;41.63;33.67;;;2.10;95.90;;;;;;5016080;28;20094;-80
2021/01/25 11:34:06;;;;;;;41.55;32.00;;;2.10;95.90;;;;;;5037617;28;20044;-78
2021/01/25 11:36:32;;;;;;;48.20;34.05;;;2.20;95.90;;;;;;5054208;28;20052;-79
2021/01/25 11:38:58;;;;;;;43.28;33.28;;;2.30;95.90;;;;;;5022366;28;20167;-78
2021/01/25 11:41:24;;;;;;;37.65;30.30;;;2.30;95.70;;;;;;5036887;28;20088;-81
2021/01/25 11:43:50;;;;;;;40.45;30.70;;;2.40;95.40;;;;;;5049981;28;20044;-81
2021/01/25 11:46:15;;;;;;;40.00;31.67;;;2.50;95.40;;;;;;5028993;28;20056;-81
2021/01/25 11:48:41;;;;;;;41.17;28.33;;;2.60;95.30;;;;;;5032540;28;20057;-80
2021/01/25 11:51:07;;;;;;;37.78;29.75;;;2.60;95.30;;;;;;5028903;28;20135;-81
2021/01/25 11:53:33;;;;;;;43.08;33.15;;;2.60;95.20;;;;;;5038060;28;20076;-81
2021/01/25 11:55:59;;;;;;;41.63;32.45;;;2.70;95.30;;;;;;5028304;28;20050;-80
2021/01/25 11:58:25;;;;;;;41.22;31.73;;;2.70;95.30;;;;;;5031464;28;20135;-80
2021/01/25 12:00:51;;;;;;;39.53;30.83;;;2.70;95.40;;;;;;5039915;28;20057;-80
2021/01/25 12:03:17;;;;;;;37.17;29.23;;;2.70;95.30;;;;;;5034958;28;20045;-80
2021/01/25 12:05:43;;;;;;;39.28;29.67;;;2.70;95.40;;;;;;5042731;28;20045;-80
2021/01/25 12:08:11;;;;;;;36.55;28.40;;;2.70;95.10;;;;;;5045467;28;20117;-80
2021/01/25 12:10:38;;;;;;;36.92;28.77;;;2.70;95.00;;;;;;5050237;28;20041;-80
2021/01/25 12:13:03;;;;;;;31.52;25.50;;;2.80;95.00;;;;;;5025515;28;20059;-80
2021/01/25 12:15:29;;;;;;;35.88;27.92;;;2.90;95.00;;;;;;5036554;28;20556;-80
2021/01/25 12:17:55;;;;;;;32.53;27.23;;;2.90;94.90;;;;;;5028204;28;20102;-80
2021/01/25 12:20:20;;;;;;;34.92;27.95;;;2.90;94.90;;;;;;5026456;28;20061;-80
2021/01/25 12:22:46;;;;;;;35.42;26.75;;;2.90;94.90;;;;;;5031763;28;20041;-80
2021/01/25 12:25:12;;;;;;;30.95;24.85;;;3.00;95.00;;;;;;5041102;28;20057;-79
2021/01/25 12:27:38;;;;;;;36.05;25.83;;;3.00;94.70;;;;;;5032612;28;20040;-79
2021/01/25 12:30:06;;;;;;;33.17;25.50;;;3.00;94.80;;;;;;5047383;28;20401;-81